createdAt,value
2022-12-20T00:01:33.381Z,1.77
2022-12-20T00:04:03.640Z,1.70
2022-12-20T00:06:30.643Z,2.17
2022-12-20T00:09:01.644Z,1.92
2022-12-20T00:11:29.999Z,2.22
2022-12-20T00:13:58.039Z,2.17
2022-12-20T00:16:28.506Z,2.05
2022-12-20T00:18:59.267Z,1.70
2022-12-20T00:21:27.257Z,2.20
2022-12-20T00:23:55.033Z,1.88
2022-12-20T00:26:26.452Z,1.95
2022-12-20T00:28:54.065Z,2.00
2022-12-20T00:31:23.404Z,2.10
2022-12-20T00:33:53.797Z,1.77
2022-12-20T00:36:23.068Z,1.85
2022-12-20T00:38:52.985Z,2.08
2022-12-20T00:41:23.394Z,1.93
2022-12-20T00:43:50.539Z,2.10
2022-12-20T00:46:19.361Z,2.17
2022-12-20T00:48:46.577Z,1.95
2022-12-20T00:51:17.383Z,2.00
2022-12-20T00:53:44.750Z,2.00
2022-12-20T00:56:12.675Z,1.73
2022-12-20T00:58:43.284Z,2.15
2022-12-20T01:01:24.613Z,2.50
2022-12-20T01:03:52.780Z,1.60
2022-12-20T01:06:20.476Z,1.77
2022-12-20T01:08:47.609Z,2.10
2022-12-20T01:11:36.565Z,2.08
2022-12-20T01:14:08.359Z,1.88
2022-12-20T01:16:39.822Z,1.83
2022-12-20T01:19:08.611Z,2.00
2022-12-20T01:21:35.706Z,2.22
2022-12-20T01:24:02.871Z,1.80
2022-12-20T01:26:30.464Z,1.88
2022-12-20T01:29:00.375Z,2.13
2022-12-20T01:31:29.410Z,2.22
2022-12-20T01:33:57.373Z,2.20
2022-12-20T01:36:34.005Z,1.90
2022-12-20T01:39:09.700Z,1.80
2022-12-20T01:41:38.671Z,1.83
2022-12-20T01:44:25.841Z,1.92
2022-12-20T01:46:53.854Z,1.73
2022-12-20T01:49:39.537Z,1.92
2022-12-20T01:52:19.496Z,1.63
2022-12-20T01:55:00.205Z,1.65
2022-12-20T01:57:49.288Z,1.63
2022-12-20T02:00:17.309Z,2.10
2022-12-20T02:02:48.112Z,1.90
2022-12-20T02:05:18.600Z,2.00
2022-12-20T02:07:50.339Z,2.00
2022-12-20T02:10:19.207Z,1.77
2022-12-20T02:12:48.562Z,2.17
2022-12-20T02:15:56.335Z,1.90
2022-12-20T02:18:46.000Z,2.05
2022-12-20T02:21:51.531Z,1.70
2022-12-20T02:24:49.084Z,1.80
2022-12-20T02:27:54.027Z,1.90
2022-12-20T02:30:24.169Z,1.95
2022-12-20T02:33:06.336Z,1.90
2022-12-20T02:35:37.623Z,1.92
2022-12-20T02:38:30.559Z,1.70
2022-12-20T02:41:04.227Z,2.00
2022-12-20T02:43:51.301Z,1.92
2022-12-20T02:46:21.020Z,2.30
2022-12-20T02:48:49.393Z,1.70
2022-12-20T02:51:19.575Z,2.00
2022-12-20T02:53:47.370Z,1.58
2022-12-20T02:56:22.033Z,1.50
2022-12-20T02:59:09.812Z,1.98
2022-12-20T03:01:48.564Z,1.70
2022-12-20T03:04:19.882Z,1.88
2022-12-20T03:07:07.932Z,1.65
2022-12-20T03:09:40.461Z,1.80
2022-12-20T03:12:09.760Z,1.60
2022-12-20T03:14:36.786Z,2.10
2022-12-20T03:17:04.448Z,1.60
2022-12-20T03:19:31.702Z,1.95
2022-12-20T03:21:59.363Z,1.50
2022-12-20T03:24:26.632Z,2.00
2022-12-20T03:26:53.632Z,1.50
2022-12-20T03:29:20.773Z,1.63
2022-12-20T03:31:47.752Z,1.73
2022-12-20T03:34:15.435Z,2.00
2022-12-20T03:36:42.422Z,1.60
2022-12-20T03:39:09.532Z,1.45
2022-12-20T03:41:36.524Z,1.80
2022-12-20T03:44:04.132Z,1.83
2022-12-20T03:46:31.341Z,1.90
2022-12-20T03:48:59.303Z,1.88
2022-12-20T03:51:26.228Z,1.90
2022-12-20T03:53:53.252Z,2.00
2022-12-20T03:56:20.249Z,1.50
2022-12-20T03:58:47.352Z,1.80
2022-12-20T04:01:24.068Z,1.75
2022-12-20T04:03:51.238Z,1.73
2022-12-20T04:06:19.591Z,1.70
2022-12-20T04:08:46.944Z,1.63
2022-12-20T04:11:16.923Z,1.65
2022-12-20T04:13:52.802Z,1.52
2022-12-20T04:16:24.661Z,1.92
2022-12-20T04:18:51.826Z,1.60
2022-12-20T04:21:28.476Z,1.80
2022-12-20T04:23:56.308Z,2.00
2022-12-20T04:26:23.584Z,1.80
2022-12-20T04:28:50.664Z,2.00
2022-12-20T04:31:23.540Z,1.95
2022-12-20T04:33:52.119Z,1.70
2022-12-20T04:36:19.202Z,1.70
2022-12-20T04:38:46.194Z,1.75
2022-12-20T04:41:22.492Z,1.60
2022-12-20T04:43:57.196Z,1.92
2022-12-20T04:46:25.900Z,1.95
2022-12-20T04:48:58.882Z,1.60
2022-12-20T04:51:28.253Z,1.60
2022-12-20T04:53:56.266Z,1.58
2022-12-20T04:56:28.989Z,1.70
2022-12-20T04:58:58.836Z,2.00
2022-12-20T05:01:26.659Z,1.63
2022-12-20T05:03:53.945Z,1.73
2022-12-20T05:06:21.216Z,1.77
2022-12-20T05:08:48.528Z,2.00
2022-12-20T05:11:15.933Z,1.75
2022-12-20T05:13:43.009Z,1.40
2022-12-20T05:16:10.392Z,1.70
2022-12-20T05:18:40.473Z,1.92
2022-12-20T05:21:28.757Z,1.52
2022-12-20T05:24:14.303Z,1.80
2022-12-20T05:26:41.719Z,2.03
2022-12-20T05:29:08.702Z,1.58
2022-12-20T05:31:35.801Z,1.80
2022-12-20T05:34:03.148Z,1.70
2022-12-20T05:36:30.294Z,1.83
2022-12-20T05:39:03.570Z,1.60
2022-12-20T05:41:31.817Z,1.65
2022-12-20T05:43:58.978Z,1.90
2022-12-20T05:46:26.173Z,1.40
2022-12-20T05:48:53.742Z,1.50
2022-12-20T05:51:20.725Z,1.77
2022-12-20T05:53:47.765Z,1.45
2022-12-20T05:56:14.725Z,1.50
2022-12-20T05:58:41.761Z,1.30
2022-12-20T06:01:10.530Z,1.92
2022-12-20T06:03:39.588Z,1.60
2022-12-20T06:06:13.965Z,1.27
2022-12-20T06:08:41.721Z,1.65
2022-12-20T06:11:08.775Z,2.00
2022-12-20T06:13:35.912Z,1.73
2022-12-20T06:16:03.120Z,1.83
2022-12-20T06:18:30.195Z,1.90
2022-12-20T06:20:57.192Z,2.03
2022-12-20T06:23:24.379Z,1.60
2022-12-20T06:25:51.765Z,1.95
2022-12-20T06:28:22.083Z,1.45
2022-12-20T06:30:57.653Z,1.50
2022-12-20T06:33:25.499Z,1.70
2022-12-20T06:35:53.332Z,1.50
2022-12-20T06:38:20.438Z,1.60
2022-12-20T06:40:47.453Z,1.52
2022-12-20T06:43:14.505Z,1.52
2022-12-20T06:45:42.413Z,1.63
2022-12-20T06:48:10.991Z,0.80
2022-12-20T06:50:41.211Z,0.57
2022-12-20T06:53:08.329Z,0.40
2022-12-20T06:55:35.466Z,0.70
2022-12-20T06:58:04.043Z,0.77
2022-12-20T07:00:31.354Z,0.68
2022-12-20T07:02:58.738Z,0.60
2022-12-20T07:05:26.143Z,0.60
2022-12-20T07:07:53.097Z,0.63
2022-12-20T07:10:20.081Z,0.50
2022-12-20T07:12:48.370Z,0.70
2022-12-20T07:15:16.489Z,0.60
2022-12-20T07:17:43.648Z,0.70
2022-12-20T07:20:13.941Z,0.60
2022-12-20T07:22:41.677Z,0.77
2022-12-20T07:25:09.281Z,0.45
2022-12-20T07:27:36.377Z,0.50
2022-12-20T07:30:17.983Z,0.80
2022-12-20T07:32:45.316Z,0.75
2022-12-20T07:35:21.352Z,0.55
2022-12-20T07:37:48.348Z,1.00
2022-12-20T07:40:16.406Z,0.73
2022-12-20T07:42:48.647Z,0.60
2022-12-20T07:45:16.417Z,0.70
2022-12-20T07:47:44.005Z,0.60
2022-12-20T07:50:11.881Z,0.70
2022-12-20T07:52:41.568Z,0.67
2022-12-20T07:55:10.416Z,0.75
2022-12-20T07:58:06.868Z,0.70
2022-12-20T08:00:34.212Z,0.73
2022-12-20T08:03:13.308Z,0.77
2022-12-20T08:05:45.946Z,0.50
2022-12-20T08:08:13.845Z,0.77
2022-12-20T08:10:41.527Z,0.70
2022-12-20T08:13:09.212Z,0.63
2022-12-20T08:15:36.807Z,0.60
2022-12-20T08:18:06.233Z,0.70
2022-12-20T08:20:34.071Z,0.60
2022-12-20T08:23:04.357Z,0.65
2022-12-20T08:25:35.907Z,0.57
2022-12-20T08:28:06.493Z,0.57
2022-12-20T08:30:33.544Z,0.70
2022-12-20T08:33:00.736Z,0.93
2022-12-20T08:35:28.069Z,0.77
2022-12-20T08:37:55.013Z,0.55
2022-12-20T08:40:21.972Z,0.60
2022-12-20T08:42:49.040Z,0.47
2022-12-20T08:45:16.199Z,0.65
2022-12-20T08:47:43.320Z,0.50
2022-12-20T08:50:10.804Z,0.55
2022-12-20T08:52:37.769Z,0.70
2022-12-20T08:55:05.698Z,0.60
2022-12-20T08:57:32.811Z,0.70
2022-12-20T08:59:59.965Z,0.40
2022-12-20T09:02:27.190Z,0.60
2022-12-20T09:04:54.235Z,0.52
2022-12-20T09:07:21.229Z,0.50
2022-12-20T09:09:48.221Z,0.73
2022-12-20T09:12:15.256Z,0.68
2022-12-20T09:14:42.485Z,0.50
2022-12-20T09:17:09.528Z,0.73
2022-12-20T09:19:36.509Z,0.65
2022-12-20T09:22:04.370Z,0.53
2022-12-20T09:24:31.575Z,0.50
2022-12-20T09:26:58.566Z,0.60
2022-12-20T09:29:30.818Z,0.60
2022-12-20T09:32:02.149Z,0.85
2022-12-20T09:34:29.178Z,0.80
2022-12-20T09:36:56.170Z,0.70
2022-12-20T09:39:23.144Z,0.75
2022-12-20T09:41:50.239Z,0.68
2022-12-20T09:44:31.095Z,0.82
2022-12-20T09:47:10.896Z,0.75
2022-12-20T09:49:44.097Z,0.67
2022-12-20T09:53:00.261Z,0.80
2022-12-20T09:55:48.730Z,0.80
2022-12-20T09:58:30.419Z,0.70
2022-12-20T10:00:58.146Z,0.60
2022-12-20T10:03:35.834Z,0.77
2022-12-20T10:06:41.382Z,0.70
2022-12-20T10:09:49.569Z,0.55
2022-12-20T10:12:40.771Z,0.65
2022-12-20T10:15:19.723Z,0.50
2022-12-20T10:17:58.354Z,0.60
2022-12-20T10:21:00.944Z,0.70
2022-12-20T10:23:33.923Z,0.70
2022-12-20T10:26:01.371Z,0.80
2022-12-20T10:28:32.020Z,0.63
2022-12-20T10:31:08.403Z,0.40
2022-12-20T10:33:36.009Z,0.88
2022-12-20T10:36:21.641Z,0.70
2022-12-20T10:38:52.542Z,0.50
2022-12-20T10:41:27.823Z,0.65
2022-12-20T10:44:17.891Z,0.70
2022-12-20T10:46:51.242Z,0.70
2022-12-20T10:49:41.373Z,0.73
2022-12-20T10:52:08.212Z,0.60
2022-12-20T10:54:45.992Z,0.57
2022-12-20T10:57:22.958Z,0.70
2022-12-20T11:00:00.326Z,0.75
2022-12-20T11:02:40.789Z,0.50
2022-12-20T11:05:11.939Z,0.90
2022-12-20T11:10:47.814Z,0.70
2022-12-20T11:13:41.424Z,0.68
2022-12-20T11:16:26.553Z,0.55
2022-12-20T11:19:03.913Z,0.80
2022-12-20T11:21:45.964Z,0.70
2022-12-20T11:24:39.640Z,0.55
2022-12-20T11:27:28.105Z,0.70
2022-12-20T11:30:30.523Z,0.80
2022-12-20T11:33:25.335Z,0.40
2022-12-20T11:36:02.559Z,0.70
2022-12-20T11:38:38.967Z,0.82
2022-12-20T11:41:11.223Z,0.45
2022-12-20T11:44:27.222Z,0.70
2022-12-20T11:47:12.513Z,0.70
2022-12-20T11:50:41.132Z,0.60
2022-12-20T11:53:54.961Z,0.50
2022-12-20T11:56:43.939Z,0.60
2022-12-20T11:59:45.366Z,0.60
2022-12-20T12:02:22.409Z,0.60
2022-12-20T12:05:04.049Z,0.57
2022-12-20T12:07:41.261Z,0.80
2022-12-20T12:10:45.059Z,0.65
2022-12-20T12:13:20.421Z,0.70
2022-12-20T12:16:01.858Z,0.70
2022-12-20T12:18:32.838Z,0.73
2022-12-20T12:21:14.738Z,0.77
2022-12-20T12:24:05.553Z,0.75
2022-12-20T12:26:40.376Z,0.70
2022-12-20T12:29:15.229Z,1.02
2022-12-20T12:32:10.665Z,0.70
2022-12-20T12:35:07.377Z,0.63
2022-12-20T12:38:49.242Z,0.85
2022-12-20T12:41:46.419Z,0.93
2022-12-20T12:44:41.573Z,0.60
2022-12-20T12:47:35.452Z,0.82
2022-12-20T12:50:05.277Z,0.85
2022-12-20T12:52:58.404Z,0.70
2022-12-20T12:55:55.405Z,0.70
2022-12-20T12:58:33.703Z,0.80
2022-12-20T13:01:08.194Z,0.75
2022-12-20T13:03:52.857Z,0.80
2022-12-20T13:06:26.112Z,0.73
2022-12-20T13:08:59.092Z,0.63
2022-12-20T13:11:42.786Z,0.80
2022-12-20T13:14:24.828Z,0.57
2022-12-20T13:17:19.560Z,0.70
2022-12-20T13:19:57.692Z,0.70
2022-12-20T13:22:27.008Z,0.70
2022-12-20T13:25:04.169Z,0.70
2022-12-20T13:27:40.837Z,0.60
2022-12-20T13:30:07.758Z,0.73
2022-12-20T13:32:57.417Z,0.80
2022-12-20T13:35:29.843Z,0.65
2022-12-20T13:38:12.057Z,0.70
2022-12-20T13:40:48.742Z,0.68
2022-12-20T13:43:24.071Z,0.57
2022-12-20T13:46:20.817Z,0.68
2022-12-20T13:49:05.747Z,0.70
2022-12-20T13:51:32.794Z,0.75
2022-12-20T13:54:07.503Z,0.50
2022-12-20T13:56:51.562Z,0.60
2022-12-20T13:59:22.573Z,0.80
2022-12-20T14:01:53.695Z,0.40
2022-12-20T14:04:22.145Z,0.50
2022-12-20T14:07:01.490Z,0.70
2022-12-20T14:09:37.756Z,0.60
2022-12-20T14:12:21.319Z,0.80
2022-12-20T14:14:54.309Z,0.60
2022-12-20T14:17:33.382Z,0.57
2022-12-20T14:20:17.873Z,0.60
2022-12-20T14:23:10.572Z,0.70
2022-12-20T14:26:10.532Z,0.52
2022-12-20T14:28:49.777Z,0.55
2022-12-20T14:31:44.734Z,0.60
2022-12-20T14:34:11.616Z,0.47
2022-12-20T14:36:44.416Z,0.30
2022-12-20T14:39:35.107Z,0.70
2022-12-20T14:42:22.347Z,0.60
2022-12-20T14:44:49.379Z,0.70
2022-12-20T14:47:26.372Z,0.50
2022-12-20T14:50:00.644Z,0.50
2022-12-20T14:52:37.776Z,0.63
2022-12-20T14:55:22.685Z,0.60
2022-12-20T14:57:56.416Z,0.88
2022-12-20T15:00:33.544Z,0.70
2022-12-20T15:03:01.204Z,0.60
2022-12-20T15:06:02.485Z,0.60
2022-12-20T15:08:35.058Z,0.50
2022-12-20T15:11:19.114Z,0.57
2022-12-20T15:13:54.614Z,0.70
2022-12-20T15:16:26.832Z,0.60
2022-12-20T15:19:02.369Z,0.60
2022-12-20T15:21:38.402Z,0.70
2022-12-20T15:24:16.891Z,0.70
2022-12-20T15:26:44.019Z,0.57
2022-12-20T15:29:19.602Z,0.60
2022-12-20T15:31:48.430Z,0.60
2022-12-20T15:34:47.573Z,0.80
2022-12-20T15:37:18.591Z,0.90
2022-12-20T15:39:46.557Z,0.80
2022-12-20T15:42:19.944Z,0.65
2022-12-20T15:44:47.386Z,0.57
2022-12-20T15:47:16.153Z,0.75
2022-12-20T15:49:49.745Z,0.55
2022-12-20T15:52:22.523Z,0.60
2022-12-20T15:54:51.448Z,1.05
2022-12-20T15:57:18.673Z,0.52
2022-12-20T16:00:03.074Z,0.70
2022-12-20T16:02:32.768Z,3.60
2022-12-20T16:05:00.300Z,3.30
2022-12-20T16:07:27.973Z,3.17
2022-12-20T16:09:55.197Z,3.25
2022-12-20T16:12:28.963Z,3.53
2022-12-20T16:14:55.935Z,2.95
2022-12-20T16:17:23.040Z,3.33
2022-12-20T16:19:50.947Z,3.05
2022-12-20T16:22:22.275Z,3.08
2022-12-20T16:24:50.332Z,2.92
2022-12-20T16:27:17.578Z,3.30
2022-12-20T16:29:45.446Z,2.58
2022-12-20T16:32:18.797Z,3.13
2022-12-20T16:34:48.659Z,3.03
2022-12-20T16:37:16.111Z,3.05
2022-12-20T16:39:43.356Z,2.85
2022-12-20T16:42:22.965Z,2.90
2022-12-20T16:44:53.354Z,3.25
2022-12-20T16:47:20.474Z,3.28
2022-12-20T16:49:52.273Z,4.07
2022-12-20T16:52:21.979Z,4.05
2022-12-20T16:54:49.773Z,4.00
2022-12-20T16:57:16.749Z,5.05
2022-12-20T16:59:43.919Z,5.75
2022-12-20T17:02:40.379Z,6.13
2022-12-20T17:05:18.191Z,4.68
2022-12-20T17:07:45.210Z,4.10
2022-12-20T17:10:12.203Z,5.05
2022-12-20T17:12:39.324Z,6.25
2022-12-20T17:15:08.190Z,6.55
2022-12-20T17:17:35.165Z,4.63
2022-12-20T17:20:02.260Z,4.10
2022-12-20T17:25:29.640Z,10.27
2022-12-20T17:27:57.100Z,6.43
2022-12-20T17:30:26.109Z,5.70
2022-12-20T17:32:54.127Z,7.25
2022-12-20T17:35:27.274Z,5.78
2022-12-20T17:37:56.185Z,5.27
2022-12-20T17:40:25.411Z,5.30
2022-12-20T17:42:52.899Z,4.68
2022-12-20T17:45:26.233Z,5.03
2022-12-20T17:47:54.865Z,4.50
2022-12-20T17:50:23.096Z,4.32
2022-12-20T17:52:50.411Z,5.10
2022-12-20T17:55:35.318Z,5.50
2022-12-20T17:58:02.391Z,5.95
2022-12-20T18:00:38.783Z,5.53
2022-12-20T18:03:07.183Z,5.10
2022-12-20T18:05:34.475Z,4.85
2022-12-20T18:08:01.463Z,5.22
2022-12-20T18:10:28.622Z,5.00
2022-12-20T18:12:55.791Z,7.00
2022-12-20T18:15:23.023Z,6.80
2022-12-20T18:17:49.991Z,5.70
2022-12-20T18:20:17.440Z,5.25
2022-12-20T18:22:44.492Z,5.45
2022-12-20T18:25:13.886Z,4.90
2022-12-20T18:27:42.602Z,7.05
2022-12-20T18:30:12.239Z,6.35
2022-12-20T18:32:40.860Z,5.32
2022-12-20T18:35:09.761Z,5.38
2022-12-20T18:37:36.762Z,4.95
2022-12-20T18:40:04.287Z,4.97
2022-12-20T18:42:31.462Z,4.82
2022-12-20T18:44:58.432Z,3.92
2022-12-20T18:47:25.682Z,4.38
2022-12-20T18:49:52.771Z,7.07
2022-12-20T18:52:20.142Z,8.00
2022-12-20T18:54:47.102Z,7.28
2022-12-20T18:57:14.092Z,9.35
2022-12-20T18:59:41.141Z,9.88
2022-12-20T19:02:12.364Z,8.18
2022-12-20T19:04:39.517Z,6.65
2022-12-20T19:07:06.579Z,5.70
2022-12-20T19:09:33.588Z,6.15
2022-12-20T19:12:00.626Z,6.00
2022-12-20T19:14:27.736Z,6.17
2022-12-20T19:16:54.832Z,5.85
2022-12-20T19:19:22.242Z,7.28
2022-12-20T19:21:49.261Z,6.55
2022-12-20T19:24:16.292Z,6.65
2022-12-20T19:26:44.831Z,6.43
2022-12-20T19:29:11.962Z,5.18
2022-12-20T19:31:39.084Z,5.75
2022-12-20T19:34:10.364Z,6.43
2022-12-20T19:36:44.363Z,5.40
2022-12-20T19:39:17.167Z,5.60
2022-12-20T19:41:55.135Z,5.63
2022-12-20T19:44:27.129Z,6.83
2022-12-20T19:46:54.142Z,7.00
2022-12-20T19:49:21.308Z,7.30
2022-12-20T19:51:49.222Z,6.70
2022-12-20T19:54:16.190Z,6.43
2022-12-20T19:56:43.160Z,5.90
2022-12-20T19:59:13.042Z,5.60
2022-12-20T20:01:40.067Z,5.20
2022-12-20T20:04:07.780Z,6.15
2022-12-20T20:06:34.798Z,5.55
2022-12-20T20:09:01.797Z,5.22
2022-12-20T20:11:29.181Z,5.50
2022-12-20T20:13:56.576Z,5.20
2022-12-20T20:16:23.961Z,4.90
2022-12-20T20:18:51.173Z,5.20
2022-12-20T20:21:22.518Z,5.83
2022-12-20T20:23:51.363Z,5.10
2022-12-20T20:26:27.211Z,5.15
2022-12-20T20:28:54.253Z,5.77
2022-12-20T20:31:22.320Z,6.15
2022-12-20T20:33:50.630Z,5.90
2022-12-20T20:36:23.465Z,6.50
2022-12-20T20:38:52.348Z,5.80
2022-12-20T20:41:19.544Z,10.30
2022-12-20T20:43:46.602Z,8.88
2022-12-20T20:46:17.057Z,6.65
2022-12-20T20:48:45.040Z,6.70
2022-12-20T20:51:12.209Z,6.57
2022-12-20T20:53:39.782Z,6.10
2022-12-20T20:56:08.734Z,6.25
2022-12-20T20:58:36.831Z,5.55
2022-12-20T21:01:06.192Z,5.65
2022-12-20T21:03:33.246Z,5.10
2022-12-20T21:06:35.075Z,5.20
2022-12-20T21:08:47.463Z,5.00
2022-12-20T21:11:14.627Z,5.18
2022-12-20T21:13:41.837Z,5.28
2022-12-20T21:16:20.920Z,5.78
2022-12-20T21:18:53.007Z,5.20
2022-12-20T21:21:20.797Z,6.32
2022-12-20T21:23:48.688Z,5.57
2022-12-20T21:26:18.942Z,6.45
2022-12-20T21:28:46.278Z,5.95
2022-12-20T21:31:18.153Z,7.00
2022-12-20T21:33:46.232Z,7.00
2022-12-20T21:36:17.090Z,6.88
2022-12-20T21:38:53.540Z,7.25
2022-12-20T21:41:23.616Z,6.75
2022-12-20T21:43:51.516Z,7.72
2022-12-20T21:46:18.642Z,8.18
2022-12-20T21:48:46.011Z,6.85
2022-12-20T21:51:15.886Z,7.50
2022-12-20T21:53:47.581Z,6.67
2022-12-20T21:56:18.326Z,7.55
2022-12-20T21:58:46.696Z,7.03
2022-12-20T22:01:16.791Z,7.15
2022-12-20T22:03:44.494Z,7.68
2022-12-20T22:06:11.997Z,7.60
2022-12-20T22:08:39.013Z,7.93
2022-12-20T22:11:13.657Z,8.38
2022-12-20T22:13:42.231Z,7.90
2022-12-20T22:16:14.190Z,7.43
2022-12-20T22:18:43.175Z,8.65
2022-12-20T22:21:13.659Z,8.00
2022-12-20T22:23:41.720Z,7.60
2022-12-20T22:26:18.708Z,7.93
2022-12-20T22:28:49.853Z,7.07
2022-12-20T22:31:17.808Z,7.35
2022-12-20T22:33:45.065Z,7.38
2022-12-20T22:36:14.848Z,8.02
2022-12-20T22:38:43.443Z,7.45
2022-12-20T22:41:14.409Z,8.73
2022-12-20T22:43:43.206Z,7.95
2022-12-20T22:48:55.083Z,9.00
2022-12-20T22:51:23.390Z,7.85
2022-12-20T22:53:50.394Z,7.43
2022-12-20T22:56:21.221Z,15.23
2022-12-20T22:58:49.155Z,7.93
2022-12-20T23:01:19.968Z,7.68
2022-12-20T23:03:48.053Z,8.13
2022-12-20T23:06:18.911Z,8.70
2022-12-20T23:08:47.398Z,9.32
2022-12-20T23:11:45.173Z,8.00
2022-12-20T23:14:37.580Z,8.30
2022-12-20T23:17:06.414Z,8.85
2022-12-20T23:19:54.175Z,8.45
2022-12-20T23:22:41.445Z,8.60
2022-12-20T23:25:09.766Z,7.93
2022-12-20T23:27:36.815Z,8.70
2022-12-20T23:30:12.154Z,9.15
2022-12-20T23:32:39.080Z,8.38
2022-12-20T23:35:12.136Z,8.25
2022-12-20T23:37:39.685Z,10.43
2022-12-20T23:40:08.393Z,9.20
2022-12-20T23:42:35.428Z,8.80
2022-12-20T23:45:02.397Z,8.55
2022-12-20T23:47:30.617Z,8.00
2022-12-20T23:49:57.608Z,7.78
2022-12-20T23:52:24.555Z,7.78
2022-12-20T23:54:51.448Z,8.52
2022-12-20T23:57:18.426Z,8.85
2022-12-20T23:59:45.322Z,8.55
